หน้าหลัก
METAR-TAF:

METAR-TAF

ท่าอากาศยาน :

Air Force Base Hoedspruit - Eastgate Airport

Hoedspruit, แอฟริกาใต้

ละติจูด: 24-21-17S, ลองจิจูด: 31-03-01E, ความสูง: 531 ม.

การสังเกตสภาพอากาศปัจจุบัน

รายงานได้ทำขึ้นเมื่อ 19 นาทีที่แล้ว ณ เวลา 04:00 UTC
ลม 1 นอตจากตะวันตกเฉียงใต้
อุณหภูมิ 20°C
ความชื้น 88%
ความกดอากาศ 1018 hPa

METAR: FAHS 020400Z AUTO 23001KT //// // ////// 20/18 Q1018

เวลา: 06:19 (04:19 UTC)

การพยากรณ์

รายงานได้ทำขึ้นเมื่อ 1 ชั่วโมงและ 19 นาทีที่แล้ว ณ เวลา 03:00 UTC
การพยากรณ์มีผลตั้งแต่วันที่ 02 ณ เวลา 04 UTC จนถึงวันที่ 02 ณ เวลา 15 UTC
ลม 3 นอตจากทิศทางซึ่งแปรผันได้
ทัศนวิสัย 10 กม. หรือมากกว่า
ไม่มีเมฆต่ำกว่า 1,500 ม. และไม่มีเมฆคิวมูโลนิมบัส
ความน่าจะเป็น 30% :
ชั่วคราว
ตั้งแต่วันที่ 02 ณ เวลา 04 UTC จนถึงวันที่ 02 ณ เวลา 06 UTC
มีเมฆเป็นส่วนมากเว้นเป็นระยะที่ความสูง 800 ฟุต
จาก 02 ณ เวลา 0800 UTC
ลม 7 นอตจากเหนือ/ตะวันตกเฉียงเหนือ
ทัศนวิสัย 10 กม. หรือมากกว่า
มีเมฆกระจายเป็นบางส่วนที่ความสูง 3000 ฟุต

TAF: FAHS 020300Z 0204/0215 VRB03KT CAVOK TX35/0213Z TN21/0204Z PROB30 TEMPO 0204/0206 BKN008 FM020800 34007KT 9999 SCT030

สังเกตการณ์สภาพอากาศและพยากรณ์อากาศของสนามบินมากกว่า 4000 แห่ง (รายงาน METAR และ TAF).

สถานีที่ดูได้จะแสดงไว้ด้วยจุดสีเหลืองและสีแดงบนแผนที่.

เลื่อนเมาส์ไปเหนือจุดเพื่อดูชื่อสถานี.

แล้วคลิกเพื่อดูสังเกตการณ์และการพยากรณ์สภาพอากาศ.

ในการเปลี่ยนแผนที่: คลิกที่ปุ่มสีเขียวที่มีกากบาทสีดำเพื่อซูมเข้า; ที่ปุ่มสีเขียวที่มีขีดเพื่อซูมออก; หรือที่ลูกศรสีเขียวเพื่อไปยังแผนที่ที่อยู่ติดกัน.


METAR-TAF: